createdAt,value
2022-10-12T00:00:36.877Z,65.81
2022-10-12T00:03:02.811Z,66.12
2022-10-12T00:05:29.489Z,66.25
2022-10-12T00:07:55.428Z,66.24
2022-10-12T00:10:21.493Z,66.06
2022-10-12T00:12:47.429Z,65.82
2022-10-12T00:15:14.080Z,66.20
2022-10-12T00:17:40.366Z,67.16
2022-10-12T00:20:08.670Z,66.91
2022-10-12T00:22:34.615Z,66.29
2022-10-12T00:25:01.308Z,66.23
2022-10-12T00:27:27.288Z,65.88
2022-10-12T00:29:53.198Z,65.83
2022-10-12T00:32:19.124Z,66.49
2022-10-12T00:34:45.862Z,66.75
2022-10-12T00:37:11.784Z,66.45
2022-10-12T00:39:37.684Z,65.75
2022-10-12T00:42:03.606Z,66.17
2022-10-12T00:44:29.579Z,66.85
2022-10-12T00:46:55.478Z,66.79
2022-10-12T00:49:22.270Z,66.57
2022-10-12T00:51:48.199Z,66.27
2022-10-12T00:54:14.107Z,66.24
2022-10-12T00:56:40.868Z,66.02
2022-10-12T00:59:06.768Z,66.38
2022-10-12T01:01:33.153Z,65.87
2022-10-12T01:03:59.897Z,66.03
2022-10-12T01:06:25.795Z,65.88
2022-10-12T01:08:52.584Z,65.92
2022-10-12T01:11:18.507Z,65.91
2022-10-12T01:13:44.459Z,65.72
2022-10-12T01:16:11.315Z,65.54
2022-10-12T01:18:37.261Z,65.90
2022-10-12T01:21:03.160Z,66.01
2022-10-12T01:23:30.011Z,66.87
2022-10-12T01:25:55.963Z,66.63
2022-10-12T01:28:21.959Z,66.72
2022-10-12T01:30:47.900Z,66.72
2022-10-12T01:33:14.698Z,66.50
2022-10-12T01:35:40.626Z,66.68
2022-10-12T01:38:07.385Z,66.65
2022-10-12T01:40:33.313Z,66.82
2022-10-12T01:42:59.242Z,66.65
2022-10-12T01:45:25.197Z,66.45
2022-10-12T01:47:51.732Z,66.66
2022-10-12T01:50:17.656Z,66.56
2022-10-12T01:52:43.550Z,66.46
2022-10-12T01:55:10.404Z,66.62
2022-10-12T01:57:36.529Z,66.45
2022-10-12T02:00:02.832Z,66.46
2022-10-12T02:02:28.757Z,66.60
2022-10-12T02:04:54.994Z,66.59
2022-10-12T02:07:22.366Z,66.56
2022-10-12T02:09:48.587Z,66.63
2022-10-12T02:12:14.776Z,66.54
2022-10-12T02:14:41.501Z,66.35
2022-10-12T02:17:07.682Z,66.08
2022-10-12T02:19:33.607Z,66.21
2022-10-12T02:22:00.859Z,65.92
2022-10-12T02:27:08.555Z,66.20
2022-10-12T04:26:20.992Z,65.61
2022-10-12T04:31:31.936Z,66.25
2022-10-12T04:33:57.853Z,66.20
2022-10-12T04:36:23.836Z,66.38
2022-10-12T04:38:49.733Z,66.04
2022-10-12T04:41:15.660Z,65.97
2022-10-12T04:43:41.588Z,66.15
2022-10-12T04:46:07.511Z,65.79
2022-10-12T04:48:33.435Z,65.61
2022-10-12T04:50:59.334Z,65.64
2022-10-12T04:53:25.291Z,65.43
2022-10-12T04:55:51.911Z,65.93
2022-10-12T04:58:18.164Z,65.65
2022-10-12T05:00:44.114Z,65.94
2022-10-12T05:03:10.006Z,66.03
2022-10-12T05:05:35.970Z,66.25
2022-10-12T05:08:02.673Z,66.47
2022-10-12T05:10:28.601Z,66.32
2022-10-12T05:12:55.463Z,66.14
2022-10-12T05:15:21.388Z,66.24
2022-10-12T05:17:47.315Z,66.20
2022-10-12T05:20:14.024Z,66.07
2022-10-12T05:22:40.616Z,66.08
2022-10-12T05:25:06.552Z,66.00
2022-10-12T05:27:33.471Z,65.94
2022-10-12T05:29:59.381Z,66.18
2022-10-12T05:32:25.300Z,66.01
2022-10-12T05:34:51.228Z,65.97
2022-10-12T05:37:17.183Z,65.93
2022-10-12T05:39:43.097Z,66.26
2022-10-12T05:42:09.012Z,66.67
2022-10-12T05:44:35.821Z,66.63
2022-10-12T05:47:01.805Z,66.67
2022-10-12T05:49:28.529Z,66.56
2022-10-12T05:51:54.461Z,66.11
2022-10-12T05:54:21.090Z,66.55
2022-10-12T05:56:46.993Z,66.68
2022-10-12T05:59:13.581Z,66.80
2022-10-12T06:01:40.245Z,66.34
2022-10-12T06:04:06.268Z,66.22
2022-10-12T06:06:32.197Z,66.09
2022-10-12T06:08:58.109Z,66.10
2022-10-12T06:11:24.134Z,65.79
2022-10-12T06:13:50.067Z,65.69
2022-10-12T06:16:15.956Z,65.59
2022-10-12T06:18:41.902Z,65.79
2022-10-12T06:21:32.647Z,65.90
2022-10-12T06:23:56.066Z,65.87
2022-10-12T06:26:22.782Z,65.35
2022-10-12T06:28:48.795Z,65.37
2022-10-12T06:31:14.752Z,65.01
2022-10-12T06:33:40.668Z,64.97
2022-10-12T06:36:07.403Z,64.96
2022-10-12T06:38:33.325Z,64.72
2022-10-12T06:40:59.307Z,64.85
2022-10-12T06:43:25.850Z,64.92
2022-10-12T06:45:51.835Z,65.03
2022-10-12T06:48:18.883Z,65.35
2022-10-12T06:50:45.060Z,65.17
2022-10-12T06:53:12.330Z,65.19
2022-10-12T06:55:38.289Z,65.06
2022-10-12T06:58:05.125Z,65.46
2022-10-12T07:00:31.310Z,64.78
2022-10-12T07:02:57.540Z,64.41
2022-10-12T07:05:23.752Z,63.85
2022-10-12T07:07:51.991Z,63.87
2022-10-12T07:10:18.237Z,64.16
2022-10-12T07:12:44.426Z,63.91
2022-10-12T07:15:10.763Z,64.02
2022-10-12T07:17:37.086Z,64.68
2022-10-12T09:15:05.969Z,55.14
2022-10-12T09:17:32.564Z,55.43
2022-10-12T09:19:58.513Z,55.05
2022-10-12T09:22:24.446Z,53.84
2022-10-12T09:24:51.314Z,54.26
2022-10-12T09:27:17.289Z,55.07
2022-10-12T09:29:43.194Z,55.19
2022-10-12T09:32:10.029Z,54.90
2022-10-12T09:34:35.970Z,54.81
2022-10-12T09:37:01.874Z,53.40
2022-10-12T09:39:29.250Z,52.09
2022-10-12T09:41:55.991Z,54.41
2022-10-12T09:44:21.916Z,54.21
2022-10-12T09:46:47.814Z,53.28
2022-10-12T09:49:14.215Z,53.44
2022-10-12T09:51:40.141Z,52.51
2022-10-12T09:54:06.064Z,51.40
2022-10-12T09:56:32.650Z,51.05
2022-10-12T09:58:59.426Z,50.02
2022-10-12T10:01:25.369Z,50.08
2022-10-12T10:03:52.046Z,50.64
2022-10-12T10:06:17.983Z,52.17
2022-10-12T10:08:44.687Z,52.76
2022-10-12T10:11:11.247Z,52.80
2022-10-12T10:13:37.171Z,50.55
2022-10-12T10:16:03.098Z,52.99
2022-10-12T10:18:29.799Z,52.55
2022-10-12T10:20:55.788Z,51.15
2022-10-12T10:23:21.747Z,52.93
2022-10-12T10:25:48.466Z,53.65
2022-10-12T10:28:14.473Z,51.48
2022-10-12T10:30:41.546Z,50.00
2022-10-12T10:33:08.332Z,49.47
2022-10-12T10:35:34.329Z,49.44
2022-10-12T10:38:00.237Z,50.47
2022-10-12T10:40:26.566Z,48.79
2022-10-12T10:42:53.058Z,49.66
2022-10-12T10:45:19.285Z,50.57
2022-10-12T10:47:46.009Z,50.21
2022-10-12T10:50:11.986Z,51.74
2022-10-12T10:52:37.910Z,50.11
2022-10-12T10:55:03.865Z,48.63
2022-10-12T10:57:29.791Z,48.24
2022-10-12T10:59:55.805Z,48.82
2022-10-12T11:02:22.658Z,48.88
2022-10-12T11:04:48.590Z,48.31
2022-10-12T11:07:14.723Z,48.89
2022-10-12T11:09:40.656Z,48.53
2022-10-12T11:12:07.509Z,47.12
2022-10-12T11:14:34.284Z,48.08
2022-10-12T11:17:00.241Z,48.67
2022-10-12T11:19:26.181Z,49.26
2022-10-12T11:21:52.705Z,48.97
2022-10-12T11:24:18.703Z,48.88
2022-10-12T11:26:44.690Z,48.96
2022-10-12T11:29:10.715Z,48.83
2022-10-12T11:31:36.622Z,48.09
2022-10-12T11:34:02.611Z,48.32
2022-10-12T11:36:28.657Z,48.98
2022-10-12T11:38:54.640Z,48.83
2022-10-12T11:41:36.484Z,47.50
2022-10-12T11:44:02.597Z,47.20
2022-10-12T11:46:28.529Z,48.77
2022-10-12T11:48:54.537Z,49.36
2022-10-12T11:51:20.832Z,49.61
2022-10-12T11:53:47.000Z,48.00
2022-10-12T11:56:14.140Z,47.69
2022-10-12T11:58:59.836Z,47.30
2022-10-12T12:01:26.470Z,47.61
2022-10-12T12:03:52.843Z,48.10
2022-10-12T12:06:19.009Z,46.96
2022-10-12T14:16:04.768Z,44.62
2022-10-12T14:18:30.712Z,44.69
2022-10-12T14:20:56.642Z,44.50
2022-10-12T14:23:22.557Z,45.66
2022-10-12T14:25:50.879Z,44.90
2022-10-12T14:28:16.862Z,44.08
2022-10-12T14:30:43.530Z,45.11
2022-10-12T14:33:09.501Z,44.95
2022-10-12T14:35:35.418Z,45.01
2022-10-12T14:38:02.092Z,45.25
2022-10-12T14:40:28.017Z,45.85
2022-10-12T14:42:54.478Z,45.62
2022-10-12T14:45:20.403Z,46.36
2022-10-12T14:47:46.322Z,46.85
2022-10-12T14:50:12.220Z,46.91
2022-10-12T14:52:38.146Z,46.72
2022-10-12T14:55:04.871Z,47.78
2022-10-12T14:57:30.792Z,47.75
2022-10-12T14:59:56.785Z,47.18
2022-10-12T15:02:22.735Z,47.76
2022-10-12T15:04:49.566Z,47.71
2022-10-12T15:07:15.502Z,48.30
2022-10-12T15:09:41.430Z,48.65
2022-10-12T15:12:08.063Z,49.14
2022-10-12T15:14:33.989Z,49.05
2022-10-12T15:16:59.893Z,50.09
2022-10-12T15:19:25.862Z,51.04
2022-10-12T15:21:51.828Z,51.10
2022-10-12T15:24:17.727Z,51.05
2022-10-12T15:26:43.671Z,50.25
2022-10-12T15:29:09.633Z,49.92
2022-10-12T15:31:36.141Z,50.32
2022-10-12T15:34:02.083Z,50.10
2022-10-12T15:36:28.003Z,50.98
2022-10-12T15:38:53.953Z,51.23
2022-10-12T15:41:20.625Z,51.51
2022-10-12T15:43:46.601Z,51.43
2022-10-12T15:46:12.507Z,51.92
2022-10-12T15:48:38.418Z,52.29
2022-10-12T15:51:05.105Z,52.14
2022-10-12T15:53:31.017Z,52.51
2022-10-12T15:55:56.957Z,52.58
2022-10-12T15:58:23.036Z,52.76
2022-10-12T16:00:49.910Z,53.13
2022-10-12T16:03:15.877Z,53.24
2022-10-12T16:05:41.845Z,53.35
2022-10-12T16:08:08.542Z,53.32
2022-10-12T16:10:34.474Z,53.67
2022-10-12T16:13:00.400Z,53.84
2022-10-12T16:15:26.326Z,52.73
2022-10-12T16:17:52.254Z,53.71
2022-10-12T16:20:18.227Z,53.34
2022-10-12T16:22:44.166Z,53.87
2022-10-12T16:25:11.033Z,53.49
2022-10-12T16:27:36.934Z,53.36
2022-10-12T16:30:05.790Z,54.06
2022-10-12T16:32:31.726Z,54.43
2022-10-12T16:34:57.685Z,54.54
2022-10-12T16:37:24.526Z,54.36
2022-10-12T16:39:50.467Z,55.02
2022-10-12T16:42:16.823Z,54.95
2022-10-12T16:44:43.753Z,54.99
2022-10-12T16:47:10.138Z,55.13
2022-10-12T16:49:36.036Z,55.03
2022-10-12T16:52:03.548Z,55.33
2022-10-12T16:54:29.760Z,54.98
2022-10-12T17:02:17.979Z,55.58
2022-10-12T17:04:45.225Z,55.54
2022-10-12T17:07:12.295Z,55.56
2022-10-12T17:17:40.821Z,56.10
2022-10-12T19:10:05.507Z,58.29
2022-10-12T19:12:31.431Z,58.16
2022-10-12T19:14:57.387Z,58.48
2022-10-12T19:17:24.035Z,58.13
2022-10-12T19:19:50.043Z,58.34
2022-10-12T19:22:16.295Z,57.48
2022-10-12T19:24:42.471Z,58.54
2022-10-12T19:27:08.365Z,58.53
2022-10-12T19:29:34.287Z,58.69
2022-10-12T19:32:00.203Z,58.63
2022-10-12T19:34:26.163Z,58.60
2022-10-12T19:36:52.074Z,58.13
2022-10-12T19:39:18.979Z,58.67
2022-10-12T19:41:44.913Z,59.22
2022-10-12T19:44:10.854Z,58.77
2022-10-12T19:46:36.807Z,58.58
2022-10-12T19:49:02.817Z,58.76
2022-10-12T19:51:28.748Z,58.59
2022-10-12T19:53:54.678Z,58.88
2022-10-12T19:56:20.598Z,59.35
2022-10-12T19:58:46.563Z,59.88
2022-10-12T20:01:12.544Z,59.26
2022-10-12T20:03:40.502Z,59.24
2022-10-12T20:06:08.935Z,59.23
2022-10-12T20:08:35.710Z,60.27
2022-10-12T20:11:01.811Z,60.06
2022-10-12T20:13:27.714Z,60.23
2022-10-12T20:15:54.240Z,59.64
2022-10-12T20:18:20.236Z,59.66
2022-10-12T20:20:46.160Z,59.83
2022-10-12T20:23:12.087Z,60.00
2022-10-12T20:25:38.332Z,59.99
2022-10-12T20:28:05.277Z,60.71
2022-10-12T20:30:31.189Z,60.43
2022-10-12T20:32:57.835Z,60.14
2022-10-12T20:35:23.744Z,59.94
2022-10-12T20:37:49.898Z,60.56
2022-10-12T20:42:59.930Z,60.56
2022-10-12T20:45:25.893Z,60.72
2022-10-12T20:47:52.606Z,60.45
2022-10-12T20:50:19.300Z,60.03
2022-10-12T20:52:45.224Z,60.73
2022-10-12T20:55:11.127Z,60.68
2022-10-12T20:57:37.116Z,60.71
2022-10-12T21:00:03.053Z,60.53
2022-10-12T21:02:29.717Z,60.71
2022-10-12T21:04:56.908Z,60.94
2022-10-12T21:07:22.846Z,60.93
2022-10-12T21:09:48.763Z,60.79
2022-10-12T21:12:15.824Z,61.04
2022-10-12T21:14:41.996Z,61.25
2022-10-12T21:17:08.668Z,61.10
2022-10-12T21:19:34.612Z,61.21
2022-10-12T21:22:00.530Z,60.99
2022-10-12T21:24:26.462Z,60.56
2022-10-12T21:26:53.075Z,61.13
2022-10-12T21:29:19.965Z,61.73
2022-10-12T21:31:45.886Z,61.80
2022-10-12T21:34:11.861Z,61.99
2022-10-12T21:36:37.776Z,61.75
2022-10-12T21:39:04.582Z,61.48
2022-10-12T21:41:30.468Z,61.57
2022-10-12T21:43:56.730Z,62.05
2022-10-12T21:46:22.748Z,62.36
2022-10-12T21:48:50.176Z,61.85
2022-10-12T21:51:16.392Z,61.62
2022-10-12T21:53:42.711Z,61.80
2022-10-12T21:56:10.301Z,62.21
2022-10-12T21:58:36.773Z,62.27
2022-10-12T22:01:03.047Z,62.38
2022-10-12T22:03:29.336Z,62.42
